sensor_id;sensor_type;location;lat;lon;timestamp;P1;durP1;ratioP1;P2;durP2;ratioP2
21354;SDS011;10835;50.148;19.760;2024-03-25T00:01:34;11.25;;;3.67;;
21354;SDS011;10835;50.148;19.760;2024-03-25T00:04:01;8.75;;;2.38;;
21354;SDS011;10835;50.148;19.760;2024-03-25T00:06:29;5.10;;;2.03;;
21354;SDS011;10835;50.148;19.760;2024-03-25T00:08:59;3.90;;;2.30;;
21354;SDS011;10835;50.148;19.760;2024-03-25T00:11:25;4.70;;;2.30;;
21354;SDS011;10835;50.148;19.760;2024-03-25T00:13:53;6.05;;;3.10;;
21354;SDS011;10835;50.148;19.760;2024-03-25T00:16:19;5.05;;;3.40;;
21354;SDS011;10835;50.148;19.760;2024-03-25T00:18:48;17.77;;;3.58;;
21354;SDS011;10835;50.148;19.760;2024-03-25T00:21:15;10.02;;;4.05;;
21354;SDS011;10835;50.148;19.760;2024-03-25T00:23:44;16.95;;;5.40;;
21354;SDS011;10835;50.148;19.760;2024-03-25T00:26:11;7.90;;;4.55;;
21354;SDS011;10835;50.148;19.760;2024-03-25T00:28:38;6.55;;;3.58;;
21354;SDS011;10835;50.148;19.760;2024-03-25T00:31:05;5.45;;;3.22;;
21354;SDS011;10835;50.148;19.760;2024-03-25T00:33:33;9.32;;;3.90;;
21354;SDS011;10835;50.148;19.760;2024-03-25T00:36:00;13.15;;;4.47;;
21354;SDS011;10835;50.148;19.760;2024-03-25T00:38:27;7.97;;;3.83;;
21354;SDS011;10835;50.148;19.760;2024-03-25T00:40:55;6.38;;;3.75;;
21354;SDS011;10835;50.148;19.760;2024-03-25T00:43:24;5.50;;;3.33;;
21354;SDS011;10835;50.148;19.760;2024-03-25T00:45:51;6.20;;;3.50;;
21354;SDS011;10835;50.148;19.760;2024-03-25T00:48:18;6.95;;;3.78;;
21354;SDS011;10835;50.148;19.760;2024-03-25T00:50:45;7.72;;;4.00;;
21354;SDS011;10835;50.148;19.760;2024-03-25T00:53:13;6.75;;;3.58;;
21354;SDS011;10835;50.148;19.760;2024-03-25T00:55:40;6.07;;;2.95;;
21354;SDS011;10835;50.148;19.760;2024-03-25T00:58:08;3.72;;;2.75;;
21354;SDS011;10835;50.148;19.760;2024-03-25T01:00:35;3.58;;;2.50;;
21354;SDS011;10835;50.148;19.760;2024-03-25T01:03:04;8.27;;;3.05;;
21354;SDS011;10835;50.148;19.760;2024-03-25T01:05:30;8.98;;;3.55;;
21354;SDS011;10835;50.148;19.760;2024-03-25T01:07:58;9.07;;;3.22;;
21354;SDS011;10835;50.148;19.760;2024-03-25T01:10:24;4.70;;;3.30;;
21354;SDS011;10835;50.148;19.760;2024-03-25T01:12:52;6.45;;;3.58;;
21354;SDS011;10835;50.148;19.760;2024-03-25T01:15:20;6.30;;;3.15;;
21354;SDS011;10835;50.148;19.760;2024-03-25T01:17:48;3.50;;;2.92;;
21354;SDS011;10835;50.148;19.760;2024-03-25T01:20:14;8.13;;;3.40;;
21354;SDS011;10835;50.148;19.760;2024-03-25T01:22:42;12.77;;;3.25;;
21354;SDS011;10835;50.148;19.760;2024-03-25T01:25:09;8.35;;;3.33;;
21354;SDS011;10835;50.148;19.760;2024-03-25T01:27:38;12.88;;;4.03;;
21354;SDS011;10835;50.148;19.760;2024-03-25T01:30:05;7.60;;;3.95;;
21354;SDS011;10835;50.148;19.760;2024-03-25T01:32:35;6.57;;;2.70;;
21354;SDS011;10835;50.148;19.760;2024-03-25T01:35:01;5.75;;;3.20;;
21354;SDS011;10835;50.148;19.760;2024-03-25T01:37:30;7.53;;;3.63;;
21354;SDS011;10835;50.148;19.760;2024-03-25T01:39:57;3.97;;;3.15;;
21354;SDS011;10835;50.148;19.760;2024-03-25T01:42:25;7.78;;;4.13;;
21354;SDS011;10835;50.148;19.760;2024-03-25T01:44:52;7.10;;;4.45;;
21354;SDS011;10835;50.148;19.760;2024-03-25T01:47:20;7.97;;;4.25;;
21354;SDS011;10835;50.148;19.760;2024-03-25T01:49:48;4.47;;;2.85;;
21354;SDS011;10835;50.148;19.760;2024-03-25T01:52:19;5.22;;;3.83;;
21354;SDS011;10835;50.148;19.760;2024-03-25T01:54:46;7.68;;;3.38;;
21354;SDS011;10835;50.148;19.760;2024-03-25T01:57:15;16.05;;;5.57;;
21354;SDS011;10835;50.148;19.760;2024-03-25T01:59:41;8.07;;;4.25;;
21354;SDS011;10835;50.148;19.760;2024-03-25T02:02:09;9.68;;;4.57;;
21354;SDS011;10835;50.148;19.760;2024-03-25T02:04:36;14.98;;;5.13;;
21354;SDS011;10835;50.148;19.760;2024-03-25T02:07:05;14.02;;;4.78;;
21354;SDS011;10835;50.148;19.760;2024-03-25T02:09:34;9.60;;;4.97;;
21354;SDS011;10835;50.148;19.760;2024-03-25T02:12:02;10.65;;;4.28;;
21354;SDS011;10835;50.148;19.760;2024-03-25T02:14:29;11.20;;;4.65;;
21354;SDS011;10835;50.148;19.760;2024-03-25T02:16:57;16.77;;;4.43;;
21354;SDS011;10835;50.148;19.760;2024-03-25T02:19:23;13.93;;;3.97;;
21354;SDS011;10835;50.148;19.760;2024-03-25T02:21:51;10.80;;;4.80;;
21354;SDS011;10835;50.148;19.760;2024-03-25T02:24:19;11.80;;;5.15;;
21354;SDS011;10835;50.148;19.760;2024-03-25T02:26:50;9.93;;;4.32;;
21354;SDS011;10835;50.148;19.760;2024-03-25T02:29:16;9.60;;;4.82;;
21354;SDS011;10835;50.148;19.760;2024-03-25T02:31:44;6.55;;;4.10;;
21354;SDS011;10835;50.148;19.760;2024-03-25T02:34:11;10.23;;;4.95;;
21354;SDS011;10835;50.148;19.760;2024-03-25T02:36:39;11.00;;;4.40;;
21354;SDS011;10835;50.148;19.760;2024-03-25T02:39:06;8.40;;;4.10;;
21354;SDS011;10835;50.148;19.760;2024-03-25T02:41:35;9.85;;;5.15;;
21354;SDS011;10835;50.148;19.760;2024-03-25T02:44:03;9.50;;;4.05;;
21354;SDS011;10835;50.148;19.760;2024-03-25T02:46:31;8.00;;;4.95;;
21354;SDS011;10835;50.148;19.760;2024-03-25T02:48:59;6.97;;;4.25;;
21354;SDS011;10835;50.148;19.760;2024-03-25T02:51:27;6.80;;;3.15;;
21354;SDS011;10835;50.148;19.760;2024-03-25T02:53:53;7.65;;;4.00;;
21354;SDS011;10835;50.148;19.760;2024-03-25T02:56:21;6.65;;;3.17;;
21354;SDS011;10835;50.148;19.760;2024-03-25T02:58:47;5.32;;;3.70;;
21354;SDS011;10835;50.148;19.760;2024-03-25T03:01:16;4.88;;;3.28;;
21354;SDS011;10835;50.148;19.760;2024-03-25T03:03:43;3.70;;;2.42;;
21354;SDS011;10835;50.148;19.760;2024-03-25T03:06:11;6.68;;;3.20;;
21354;SDS011;10835;50.148;19.760;2024-03-25T03:08:37;5.90;;;2.40;;
21354;SDS011;10835;50.148;19.760;2024-03-25T03:11:05;4.97;;;3.13;;
21354;SDS011;10835;50.148;19.760;2024-03-25T03:13:31;4.97;;;2.85;;
21354;SDS011;10835;50.148;19.760;2024-03-25T03:15:59;3.38;;;1.85;;
21354;SDS011;10835;50.148;19.760;2024-03-25T03:18:27;1.60;;;1.50;;
21354;SDS011;10835;50.148;19.760;2024-03-25T03:20:55;2.65;;;1.38;;
21354;SDS011;10835;50.148;19.760;2024-03-25T03:23:21;1.58;;;1.13;;
21354;SDS011;10835;50.148;19.760;2024-03-25T03:25:49;1.52;;;1.42;;
21354;SDS011;10835;50.148;19.760;2024-03-25T03:28:16;1.30;;;1.20;;
21354;SDS011;10835;50.148;19.760;2024-03-25T03:30:44;2.35;;;1.65;;
21354;SDS011;10835;50.148;19.760;2024-03-25T03:33:10;1.65;;;1.55;;
21354;SDS011;10835;50.148;19.760;2024-03-25T03:35:39;1.50;;;1.40;;
21354;SDS011;10835;50.148;19.760;2024-03-25T03:38:06;3.72;;;1.42;;
21354;SDS011;10835;50.148;19.760;2024-03-25T03:40:33;3.33;;;1.52;;
21354;SDS011;10835;50.148;19.760;2024-03-25T03:43:00;2.00;;;1.45;;
21354;SDS011;10835;50.148;19.760;2024-03-25T03:45:32;5.25;;;1.75;;
21354;SDS011;10835;50.148;19.760;2024-03-25T03:47:59;2.92;;;1.83;;
21354;SDS011;10835;50.148;19.760;2024-03-25T03:50:27;2.10;;;1.15;;
21354;SDS011;10835;50.148;19.760;2024-03-25T03:52:54;2.13;;;1.50;;
21354;SDS011;10835;50.148;19.760;2024-03-25T03:55:22;3.08;;;1.65;;
21354;SDS011;10835;50.148;19.760;2024-03-25T03:57:49;3.03;;;1.70;;
21354;SDS011;10835;50.148;19.760;2024-03-25T04:00:16;2.53;;;1.80;;
21354;SDS011;10835;50.148;19.760;2024-03-25T04:02:43;1.65;;;1.55;;
21354;SDS011;10835;50.148;19.760;2024-03-25T04:05:11;3.33;;;1.40;;
21354;SDS011;10835;50.148;19.760;2024-03-25T04:07:37;0.90;;;0.90;;
21354;SDS011;10835;50.148;19.760;2024-03-25T04:10:07;2.50;;;1.17;;
21354;SDS011;10835;50.148;19.760;2024-03-25T04:12:34;10.82;;;2.10;;
21354;SDS011;10835;50.148;19.760;2024-03-25T04:15:02;5.95;;;1.40;;
21354;SDS011;10835;50.148;19.760;2024-03-25T04:17:29;3.15;;;1.70;;
21354;SDS011;10835;50.148;19.760;2024-03-25T04:19:58;8.77;;;4.28;;
21354;SDS011;10835;50.148;19.760;2024-03-25T04:22:25;16.80;;;5.90;;
21354;SDS011;10835;50.148;19.760;2024-03-25T04:24:54;20.02;;;6.78;;
21354;SDS011;10835;50.148;19.760;2024-03-25T04:27:22;23.30;;;9.73;;
21354;SDS011;10835;50.148;19.760;2024-03-25T04:29:52;14.75;;;7.32;;
21354;SDS011;10835;50.148;19.760;2024-03-25T04:32:19;14.63;;;6.80;;
21354;SDS011;10835;50.148;19.760;2024-03-25T04:34:46;16.08;;;6.45;;
21354;SDS011;10835;50.148;19.760;2024-03-25T04:37:13;16.13;;;6.63;;
21354;SDS011;10835;50.148;19.760;2024-03-25T04:39:39;13.23;;;5.53;;
21354;SDS011;10835;50.148;19.760;2024-03-25T04:42:06;10.07;;;4.90;;
21354;SDS011;10835;50.148;19.760;2024-03-25T04:44:34;9.15;;;4.45;;
21354;SDS011;10835;50.148;19.760;2024-03-25T04:47:01;9.07;;;3.22;;
21354;SDS011;10835;50.148;19.760;2024-03-25T04:49:27;13.95;;;5.05;;
21354;SDS011;10835;50.148;19.760;2024-03-25T04:51:54;10.35;;;6.50;;
21354;SDS011;10835;50.148;19.760;2024-03-25T04:54:21;9.15;;;4.25;;
21354;SDS011;10835;50.148;19.760;2024-03-25T04:56:47;7.25;;;4.00;;
21354;SDS011;10835;50.148;19.760;2024-03-25T04:59:14;6.50;;;2.95;;
21354;SDS011;10835;50.148;19.760;2024-03-25T05:01:42;6.00;;;3.63;;
21354;SDS011;10835;50.148;19.760;2024-03-25T05:04:09;5.35;;;2.60;;
21354;SDS011;10835;50.148;19.760;2024-03-25T05:06:35;5.80;;;2.80;;
21354;SDS011;10835;50.148;19.760;2024-03-25T05:09:02;6.93;;;3.05;;
21354;SDS011;10835;50.148;19.760;2024-03-25T05:11:28;5.82;;;2.97;;
21354;SDS011;10835;50.148;19.760;2024-03-25T05:13:55;3.65;;;1.85;;
21354;SDS011;10835;50.148;19.760;2024-03-25T05:16:21;3.97;;;2.50;;
21354;SDS011;10835;50.148;19.760;2024-03-25T05:18:50;6.93;;;2.83;;
21354;SDS011;10835;50.148;19.760;2024-03-25T05:21:17;3.55;;;2.17;;
21354;SDS011;10835;50.148;19.760;2024-03-25T05:23:43;5.93;;;2.55;;
21354;SDS011;10835;50.148;19.760;2024-03-25T05:26:10;3.10;;;2.13;;
21354;SDS011;10835;50.148;19.760;2024-03-25T05:28:36;2.88;;;1.83;;
21354;SDS011;10835;50.148;19.760;2024-03-25T05:31:06;4.03;;;2.53;;
21354;SDS011;10835;50.148;19.760;2024-03-25T05:33:33;4.38;;;2.42;;
21354;SDS011;10835;50.148;19.760;2024-03-25T05:36:01;3.53;;;2.10;;
21354;SDS011;10835;50.148;19.760;2024-03-25T05:38:28;2.03;;;1.88;;
21354;SDS011;10835;50.148;19.760;2024-03-25T05:40:55;5.00;;;2.33;;
21354;SDS011;10835;50.148;19.760;2024-03-25T05:43:22;3.10;;;1.65;;
21354;SDS011;10835;50.148;19.760;2024-03-25T05:45:51;2.67;;;1.42;;
21354;SDS011;10835;50.148;19.760;2024-03-25T05:48:18;4.18;;;2.10;;
21354;SDS011;10835;50.148;19.760;2024-03-25T05:50:45;5.63;;;2.00;;
21354;SDS011;10835;50.148;19.760;2024-03-25T05:53:13;4.45;;;2.28;;
21354;SDS011;10835;50.148;19.760;2024-03-25T05:55:39;1.92;;;1.63;;
21354;SDS011;10835;50.148;19.760;2024-03-25T05:58:06;4.93;;;1.95;;
21354;SDS011;10835;50.148;19.760;2024-03-25T06:00:33;1.35;;;1.05;;
21354;SDS011;10835;50.148;19.760;2024-03-25T06:02:59;3.08;;;1.13;;
21354;SDS011;10835;50.148;19.760;2024-03-25T06:05:26;1.40;;;1.30;;
21354;SDS011;10835;50.148;19.760;2024-03-25T06:07:53;2.17;;;1.58;;
21354;SDS011;10835;50.148;19.760;2024-03-25T06:10:21;1.55;;;1.08;;
21354;SDS011;10835;50.148;19.760;2024-03-25T06:12:47;1.20;;;1.10;;
21354;SDS011;10835;50.148;19.760;2024-03-25T06:15:14;2.35;;;1.42;;
21354;SDS011;10835;50.148;19.760;2024-03-25T06:17:40;1.48;;;1.20;;
21354;SDS011;10835;50.148;19.760;2024-03-25T06:20:07;1.65;;;1.05;;
21354;SDS011;10835;50.148;19.760;2024-03-25T06:22:34;1.35;;;0.98;;
21354;SDS011;10835;50.148;19.760;2024-03-25T06:25:01;2.50;;;1.30;;
21354;SDS011;10835;50.148;19.760;2024-03-25T06:27:29;1.13;;;0.90;;
21354;SDS011;10835;50.148;19.760;2024-03-25T06:29:55;1.17;;;1.05;;
21354;SDS011;10835;50.148;19.760;2024-03-25T06:32:22;1.33;;;1.10;;
21354;SDS011;10835;50.148;19.760;2024-03-25T06:35:07;2.40;;;1.10;;
21354;SDS011;10835;50.148;19.760;2024-03-25T06:37:33;1.25;;;1.10;;
21354;SDS011;10835;50.148;19.760;2024-03-25T06:40:00;2.53;;;1.23;;
21354;SDS011;10835;50.148;19.760;2024-03-25T06:42:26;1.45;;;1.00;;
21354;SDS011;10835;50.148;19.760;2024-03-25T06:44:54;1.38;;;0.93;;
21354;SDS011;10835;50.148;19.760;2024-03-25T06:47:22;1.55;;;1.23;;
21354;SDS011;10835;50.148;19.760;2024-03-25T06:49:49;0.60;;;0.60;;
21354;SDS011;10835;50.148;19.760;2024-03-25T06:52:15;0.88;;;0.80;;
21354;SDS011;10835;50.148;19.760;2024-03-25T06:54:42;1.05;;;1.00;;
21354;SDS011;10835;50.148;19.760;2024-03-25T06:57:08;1.40;;;1.33;;
21354;SDS011;10835;50.148;19.760;2024-03-25T06:59:37;1.17;;;1.08;;
21354;SDS011;10835;50.148;19.760;2024-03-25T07:02:04;0.80;;;0.80;;
21354;SDS011;10835;50.148;19.760;2024-03-25T07:04:31;2.42;;;1.35;;
21354;SDS011;10835;50.148;19.760;2024-03-25T07:06:58;2.88;;;1.20;;
21354;SDS011;10835;50.148;19.760;2024-03-25T07:09:25;1.77;;;1.17;;
21354;SDS011;10835;50.148;19.760;2024-03-25T07:11:51;2.15;;;1.40;;
21354;SDS011;10835;50.148;19.760;2024-03-25T07:14:18;1.30;;;1.20;;
21354;SDS011;10835;50.148;19.760;2024-03-25T07:16:46;0.82;;;0.77;;
21354;SDS011;10835;50.148;19.760;2024-03-25T07:19:12;1.27;;;1.17;;
21354;SDS011;10835;50.148;19.760;2024-03-25T07:21:39;1.65;;;1.20;;
21354;SDS011;10835;50.148;19.760;2024-03-25T07:24:06;1.85;;;1.17;;
21354;SDS011;10835;50.148;19.760;2024-03-25T07:26:32;1.42;;;1.33;;
21354;SDS011;10835;50.148;19.760;2024-03-25T07:28:59;1.52;;;1.35;;
21354;SDS011;10835;50.148;19.760;2024-03-25T07:31:26;1.95;;;1.40;;
21354;SDS011;10835;50.148;19.760;2024-03-25T07:33:54;1.88;;;1.20;;
21354;SDS011;10835;50.148;19.760;2024-03-25T07:36:20;0.98;;;0.65;;
21354;SDS011;10835;50.148;19.760;2024-03-25T07:38:47;1.52;;;1.08;;
21354;SDS011;10835;50.148;19.760;2024-03-25T07:41:13;1.80;;;0.90;;
21354;SDS011;10835;50.148;19.760;2024-03-25T07:43:40;1.52;;;0.98;;
21354;SDS011;10835;50.148;19.760;2024-03-25T07:46:07;1.05;;;0.95;;
21354;SDS011;10835;50.148;19.760;2024-03-25T07:48:34;1.67;;;1.00;;
21354;SDS011;10835;50.148;19.760;2024-03-25T07:51:02;1.15;;;1.05;;
21354;SDS011;10835;50.148;19.760;2024-03-25T07:53:29;1.48;;;1.10;;
21354;SDS011;10835;50.148;19.760;2024-03-25T07:55:56;3.20;;;1.15;;
21354;SDS011;10835;50.148;19.760;2024-03-25T07:58:23;2.78;;;1.42;;
21354;SDS011;10835;50.148;19.760;2024-03-25T08:00:49;1.30;;;0.82;;
21354;SDS011;10835;50.148;19.760;2024-03-25T08:03:16;2.13;;;1.42;;
21354;SDS011;10835;50.148;19.760;2024-03-25T08:05:42;2.05;;;1.55;;
21354;SDS011;10835;50.148;19.760;2024-03-25T08:08:10;1.45;;;1.13;;
21354;SDS011;10835;50.148;19.760;2024-03-25T08:10:37;2.80;;;1.33;;
21354;SDS011;10835;50.148;19.760;2024-03-25T08:13:03;1.98;;;0.90;;
21354;SDS011;10835;50.148;19.760;2024-03-25T08:15:30;1.00;;;0.93;;
21354;SDS011;10835;50.148;19.760;2024-03-25T08:17:56;1.75;;;1.45;;
21354;SDS011;10835;50.148;19.760;2024-03-25T08:20:23;2.33;;;0.98;;
21354;SDS011;10835;50.148;19.760;2024-03-25T08:22:51;1.38;;;1.20;;
21354;SDS011;10835;50.148;19.760;2024-03-25T08:25:18;1.42;;;1.13;;
21354;SDS011;10835;50.148;19.760;2024-03-25T08:27:45;3.20;;;1.80;;
21354;SDS011;10835;50.148;19.760;2024-03-25T08:30:12;2.42;;;1.30;;
21354;SDS011;10835;50.148;19.760;2024-03-25T08:32:38;7.35;;;1.45;;
21354;SDS011;10835;50.148;19.760;2024-03-25T08:35:05;1.20;;;1.10;;
21354;SDS011;10835;50.148;19.760;2024-03-25T08:37:32;2.40;;;1.25;;
21354;SDS011;10835;50.148;19.760;2024-03-25T08:39:59;1.90;;;1.45;;
21354;SDS011;10835;50.148;19.760;2024-03-25T08:42:27;1.80;;;1.40;;
21354;SDS011;10835;50.148;19.760;2024-03-25T08:44:53;1.80;;;1.00;;
21354;SDS011;10835;50.148;19.760;2024-03-25T08:47:20;1.85;;;1.40;;
21354;SDS011;10835;50.148;19.760;2024-03-25T08:49:47;4.03;;;1.70;;
21354;SDS011;10835;50.148;19.760;2024-03-25T08:52:13;1.23;;;1.13;;
21354;SDS011;10835;50.148;19.760;2024-03-25T08:54:40;4.03;;;1.95;;
21354;SDS011;10835;50.148;19.760;2024-03-25T08:57:06;5.03;;;1.67;;
21354;SDS011;10835;50.148;19.760;2024-03-25T08:59:34;1.92;;;1.48;;
21354;SDS011;10835;50.148;19.760;2024-03-25T09:02:01;2.85;;;1.73;;
21354;SDS011;10835;50.148;19.760;2024-03-25T09:04:27;1.15;;;1.05;;
21354;SDS011;10835;50.148;19.760;2024-03-25T09:06:54;2.58;;;1.42;;
21354;SDS011;10835;50.148;19.760;2024-03-25T09:09:20;2.53;;;1.50;;
21354;SDS011;10835;50.148;19.760;2024-03-25T09:12:05;1.35;;;1.25;;
21354;SDS011;10835;50.148;19.760;2024-03-25T09:14:32;2.67;;;1.73;;
21354;SDS011;10835;50.148;19.760;2024-03-25T09:17:00;2.42;;;1.85;;
21354;SDS011;10835;50.148;19.760;2024-03-25T09:19:27;4.47;;;1.48;;
21354;SDS011;10835;50.148;19.760;2024-03-25T09:21:54;3.85;;;2.00;;
21354;SDS011;10835;50.148;19.760;2024-03-25T09:24:21;1.85;;;1.40;;
21354;SDS011;10835;50.148;19.760;2024-03-25T09:26:49;1.40;;;1.30;;
21354;SDS011;10835;50.148;19.760;2024-03-25T09:29:16;1.55;;;1.08;;
21354;SDS011;10835;50.148;19.760;2024-03-25T09:31:42;0.98;;;0.98;;
21354;SDS011;10835;50.148;19.760;2024-03-25T09:34:10;1.23;;;1.05;;
21354;SDS011;10835;50.148;19.760;2024-03-25T09:36:37;1.10;;;0.90;;
21354;SDS011;10835;50.148;19.760;2024-03-25T09:39:04;2.05;;;1.13;;
21354;SDS011;10835;50.148;19.760;2024-03-25T09:41:30;1.33;;;1.23;;
21354;SDS011;10835;50.148;19.760;2024-03-25T09:44:00;1.75;;;1.42;;
21354;SDS011;10835;50.148;19.760;2024-03-25T09:46:27;1.67;;;1.58;;
21354;SDS011;10835;50.148;19.760;2024-03-25T09:48:54;0.82;;;0.82;;
21354;SDS011;10835;50.148;19.760;2024-03-25T09:51:22;1.10;;;1.00;;
21354;SDS011;10835;50.148;19.760;2024-03-25T09:53:48;0.88;;;0.82;;
21354;SDS011;10835;50.148;19.760;2024-03-25T09:56:15;0.80;;;0.80;;
21354;SDS011;10835;50.148;19.760;2024-03-25T09:58:42;0.93;;;0.75;;
21354;SDS011;10835;50.148;19.760;2024-03-25T10:01:10;2.25;;;1.05;;
21354;SDS011;10835;50.148;19.760;2024-03-25T10:03:36;2.58;;;0.85;;
21354;SDS011;10835;50.148;19.760;2024-03-25T10:06:03;0.77;;;0.77;;
21354;SDS011;10835;50.148;19.760;2024-03-25T10:08:32;0.95;;;0.93;;
21354;SDS011;10835;50.148;19.760;2024-03-25T10:10:58;2.05;;;1.58;;
21354;SDS011;10835;50.148;19.760;2024-03-25T10:13:26;2.13;;;1.58;;
21354;SDS011;10835;50.148;19.760;2024-03-25T10:15:54;0.57;;;0.55;;
21354;SDS011;10835;50.148;19.760;2024-03-25T10:18:21;1.63;;;0.80;;
21354;SDS011;10835;50.148;19.760;2024-03-25T10:20:48;1.50;;;1.40;;
21354;SDS011;10835;50.148;19.760;2024-03-25T10:23:14;6.15;;;1.90;;
21354;SDS011;10835;50.148;19.760;2024-03-25T10:25:42;1.45;;;1.33;;
21354;SDS011;10835;50.148;19.760;2024-03-25T10:28:09;1.48;;;1.38;;
21354;SDS011;10835;50.148;19.760;2024-03-25T10:30:35;0.93;;;0.88;;
21354;SDS011;10835;50.148;19.760;2024-03-25T10:33:02;1.77;;;1.25;;
21354;SDS011;10835;50.148;19.760;2024-03-25T10:35:30;0.85;;;0.70;;
21354;SDS011;10835;50.148;19.760;2024-03-25T10:37:58;1.02;;;0.93;;
21354;SDS011;10835;50.148;19.760;2024-03-25T10:40:26;0.55;;;0.55;;
21354;SDS011;10835;50.148;19.760;2024-03-25T10:42:59;1.55;;;1.25;;
21354;SDS011;10835;50.148;19.760;2024-03-25T10:45:29;1.73;;;1.27;;
21354;SDS011;10835;50.148;19.760;2024-03-25T10:47:59;0.40;;;0.40;;
21354;SDS011;10835;50.148;19.760;2024-03-25T10:50:28;1.75;;;1.00;;
21354;SDS011;10835;50.148;19.760;2024-03-25T10:52:56;1.70;;;1.05;;
21354;SDS011;10835;50.148;19.760;2024-03-25T10:55:24;0.93;;;0.93;;
21354;SDS011;10835;50.148;19.760;2024-03-25T10:57:53;0.75;;;0.75;;
21354;SDS011;10835;50.148;19.760;2024-03-25T11:00:23;0.40;;;0.40;;
21354;SDS011;10835;50.148;19.760;2024-03-25T11:02:49;1.02;;;0.90;;
21354;SDS011;10835;50.148;19.760;2024-03-25T11:05:17;1.27;;;0.82;;
21354;SDS011;10835;50.148;19.760;2024-03-25T11:07:44;1.85;;;0.88;;
21354;SDS011;10835;50.148;19.760;2024-03-25T11:10:11;1.52;;;0.65;;
21354;SDS011;10835;50.148;19.760;2024-03-25T11:12:40;0.45;;;0.45;;
21354;SDS011;10835;50.148;19.760;2024-03-25T11:15:07;0.40;;;0.40;;
21354;SDS011;10835;50.148;19.760;2024-03-25T11:17:36;0.60;;;0.47;;
21354;SDS011;10835;50.148;19.760;2024-03-25T11:20:15;0.50;;;0.47;;
21354;SDS011;10835;50.148;19.760;2024-03-25T11:22:48;1.20;;;0.60;;
21354;SDS011;10835;50.148;19.760;2024-03-25T11:25:15;0.50;;;0.50;;
21354;SDS011;10835;50.148;19.760;2024-03-25T11:27:42;0.77;;;0.57;;
21354;SDS011;10835;50.148;19.760;2024-03-25T11:30:10;0.32;;;0.32;;
21354;SDS011;10835;50.148;19.760;2024-03-25T11:32:45;0.45;;;0.45;;
21354;SDS011;10835;50.148;19.760;2024-03-25T11:35:12;0.75;;;0.38;;
21354;SDS011;10835;50.148;19.760;2024-03-25T11:37:40;0.30;;;0.30;;
21354;SDS011;10835;50.148;19.760;2024-03-25T11:40:07;0.68;;;0.68;;
21354;SDS011;10835;50.148;19.760;2024-03-25T11:42:34;0.32;;;0.32;;
21354;SDS011;10835;50.148;19.760;2024-03-25T11:45:03;1.05;;;0.63;;
21354;SDS011;10835;50.148;19.760;2024-03-25T11:47:31;0.75;;;0.50;;
21354;SDS011;10835;50.148;19.760;2024-03-25T11:49:59;1.20;;;1.02;;
21354;SDS011;10835;50.148;19.760;2024-03-25T11:52:29;0.70;;;0.70;;
21354;SDS011;10835;50.148;19.760;2024-03-25T11:54:56;0.73;;;0.73;;
21354;SDS011;10835;50.148;19.760;2024-03-25T11:57:23;0.52;;;0.52;;
21354;SDS011;10835;50.148;19.760;2024-03-25T11:59:49;0.52;;;0.52;;
21354;SDS011;10835;50.148;19.760;2024-03-25T12:02:16;0.95;;;0.90;;
21354;SDS011;10835;50.148;19.760;2024-03-25T12:04:43;1.30;;;0.93;;
21354;SDS011;10835;50.148;19.760;2024-03-25T12:07:12;0.65;;;0.65;;
21354;SDS011;10835;50.148;19.760;2024-03-25T12:09:39;0.45;;;0.45;;
21354;SDS011;10835;50.148;19.760;2024-03-25T12:12:25;2.83;;;0.80;;
21354;SDS011;10835;50.148;19.760;2024-03-25T12:14:52;0.32;;;0.32;;
21354;SDS011;10835;50.148;19.760;2024-03-25T12:17:21;0.77;;;0.60;;
21354;SDS011;10835;50.148;19.760;2024-03-25T12:19:58;0.77;;;0.77;;
21354;SDS011;10835;50.148;19.760;2024-03-25T12:22:27;0.68;;;0.68;;
21354;SDS011;10835;50.148;19.760;2024-03-25T12:24:56;0.57;;;0.57;;
21354;SDS011;10835;50.148;19.760;2024-03-25T12:27:24;0.77;;;0.77;;
21354;SDS011;10835;50.148;19.760;2024-03-25T12:29:57;1.08;;;0.77;;
21354;SDS011;10835;50.148;19.760;2024-03-25T12:32:31;0.50;;;0.50;;
21354;SDS011;10835;50.148;19.760;2024-03-25T12:35:06;2.25;;;0.43;;
21354;SDS011;10835;50.148;19.760;2024-03-25T12:37:35;0.20;;;0.20;;
21354;SDS011;10835;50.148;19.760;2024-03-25T12:40:03;0.35;;;0.35;;
21354;SDS011;10835;50.148;19.760;2024-03-25T12:42:31;0.60;;;0.60;;
21354;SDS011;10835;50.148;19.760;2024-03-25T12:44:57;0.55;;;0.55;;
21354;SDS011;10835;50.148;19.760;2024-03-25T12:47:24;0.50;;;0.50;;
21354;SDS011;10835;50.148;19.760;2024-03-25T12:49:51;4.47;;;1.00;;
21354;SDS011;10835;50.148;19.760;2024-03-25T12:52:17;0.60;;;0.60;;
21354;SDS011;10835;50.148;19.760;2024-03-25T12:54:45;1.52;;;0.82;;
21354;SDS011;10835;50.148;19.760;2024-03-25T12:57:12;1.65;;;0.80;;
21354;SDS011;10835;50.148;19.760;2024-03-25T12:59:39;1.15;;;0.88;;
21354;SDS011;10835;50.148;19.760;2024-03-25T13:02:05;1.10;;;0.95;;
21354;SDS011;10835;50.148;19.760;2024-03-25T13:04:35;1.77;;;1.23;;
21354;SDS011;10835;50.148;19.760;2024-03-25T13:07:02;1.48;;;1.08;;
21354;SDS011;10835;50.148;19.760;2024-03-25T13:09:29;1.70;;;1.17;;
21354;SDS011;10835;50.148;19.760;2024-03-25T13:11:57;1.02;;;0.95;;
21354;SDS011;10835;50.148;19.760;2024-03-25T13:14:24;1.52;;;0.90;;
21354;SDS011;10835;50.148;19.760;2024-03-25T13:16:51;0.63;;;0.63;;
21354;SDS011;10835;50.148;19.760;2024-03-25T13:19:17;2.40;;;0.63;;
21354;SDS011;10835;50.148;19.760;2024-03-25T13:21:44;1.85;;;1.00;;
21354;SDS011;10835;50.148;19.760;2024-03-25T13:24:10;0.77;;;0.70;;
21354;SDS011;10835;50.148;19.760;2024-03-25T13:26:37;0.55;;;0.55;;
21354;SDS011;10835;50.148;19.760;2024-03-25T13:29:05;1.05;;;0.80;;
21354;SDS011;10835;50.148;19.760;2024-03-25T13:31:32;1.10;;;0.73;;
21354;SDS011;10835;50.148;19.760;2024-03-25T13:33:59;1.55;;;1.05;;
21354;SDS011;10835;50.148;19.760;2024-03-25T13:36:25;0.80;;;0.80;;
21354;SDS011;10835;50.148;19.760;2024-03-25T13:38:52;0.60;;;0.60;;
21354;SDS011;10835;50.148;19.760;2024-03-25T13:41:18;1.15;;;0.88;;
21354;SDS011;10835;50.148;19.760;2024-03-25T13:43:45;1.17;;;0.88;;
21354;SDS011;10835;50.148;19.760;2024-03-25T13:46:14;1.30;;;0.82;;
21354;SDS011;10835;50.148;19.760;2024-03-25T13:48:41;0.57;;;0.55;;
21354;SDS011;10835;50.148;19.760;2024-03-25T13:51:08;1.13;;;0.70;;
21354;SDS011;10835;50.148;19.760;2024-03-25T13:53:34;0.93;;;0.75;;
21354;SDS011;10835;50.148;19.760;2024-03-25T13:56:01;0.40;;;0.40;;
21354;SDS011;10835;50.148;19.760;2024-03-25T13:58:27;1.65;;;0.68;;
21354;SDS011;10835;50.148;19.760;2024-03-25T14:00:54;1.05;;;0.63;;
21354;SDS011;10835;50.148;19.760;2024-03-25T14:03:22;0.30;;;0.30;;
21354;SDS011;10835;50.148;19.760;2024-03-25T14:05:48;0.35;;;0.35;;
21354;SDS011;10835;50.148;19.760;2024-03-25T14:08:15;0.63;;;0.63;;
21354;SDS011;10835;50.148;19.760;2024-03-25T14:10:42;1.30;;;0.60;;
21354;SDS011;10835;50.148;19.760;2024-03-25T14:13:09;1.13;;;0.98;;
21354;SDS011;10835;50.148;19.760;2024-03-25T14:15:35;1.02;;;0.93;;
21354;SDS011;10835;50.148;19.760;2024-03-25T14:18:02;0.50;;;0.50;;
21354;SDS011;10835;50.148;19.760;2024-03-25T14:20:31;0.85;;;0.80;;
21354;SDS011;10835;50.148;19.760;2024-03-25T14:22:57;0.90;;;0.70;;
21354;SDS011;10835;50.148;19.760;2024-03-25T14:25:24;0.88;;;0.77;;
21354;SDS011;10835;50.148;19.760;2024-03-25T14:27:50;0.63;;;0.57;;
21354;SDS011;10835;50.148;19.760;2024-03-25T14:30:17;1.10;;;1.00;;
21354;SDS011;10835;50.148;19.760;2024-03-25T14:32:43;0.93;;;0.90;;
21354;SDS011;10835;50.148;19.760;2024-03-25T14:35:10;0.50;;;0.50;;